sensor_id;sensor_type;location;lat;lon;timestamp;temperature;humidity
22426;DHT22;11380;50.822;15.790;2023-09-19T00:01:21;17.90;99.90
22426;DHT22;11380;50.822;15.790;2023-09-19T00:06:29;17.90;99.90
22426;DHT22;11380;50.822;15.790;2023-09-19T00:11:37;18.10;99.90
22426;DHT22;11380;50.822;15.790;2023-09-19T00:16:44;17.90;99.90
22426;DHT22;11380;50.822;15.790;2023-09-19T00:21:53;17.60;99.90
22426;DHT22;11380;50.822;15.790;2023-09-19T00:27:00;17.60;99.90
22426;DHT22;11380;50.822;15.790;2023-09-19T00:32:08;17.70;99.90
22426;DHT22;11380;50.822;15.790;2023-09-19T00:37:15;17.70;99.90
22426;DHT22;11380;50.822;15.790;2023-09-19T00:42:24;17.80;99.90
22426;DHT22;11380;50.822;15.790;2023-09-19T00:47:31;18.00;99.90
22426;DHT22;11380;50.822;15.790;2023-09-19T00:52:38;18.00;99.90
22426;DHT22;11380;50.822;15.790;2023-09-19T00:57:47;17.90;99.90
22426;DHT22;11380;50.822;15.790;2023-09-19T01:02:58;17.90;99.90
22426;DHT22;11380;50.822;15.790;2023-09-19T01:08:07;17.90;99.90
22426;DHT22;11380;50.822;15.790;2023-09-19T01:13:40;17.80;99.90
22426;DHT22;11380;50.822;15.790;2023-09-19T01:29:44;17.80;99.90
22426;DHT22;11380;50.822;15.790;2023-09-19T01:34:55;17.80;99.90
22426;DHT22;11380;50.822;15.790;2023-09-19T01:40:08;17.70;99.90
22426;DHT22;11380;50.822;15.790;2023-09-19T01:51:05;17.50;99.90
22426;DHT22;11380;50.822;15.790;2023-09-19T01:56:16;17.30;99.90
22426;DHT22;11380;50.822;15.790;2023-09-19T02:01:26;17.30;99.90
22426;DHT22;11380;50.822;15.790;2023-09-19T02:06:33;17.10;99.90
22426;DHT22;11380;50.822;15.790;2023-09-19T02:11:40;17.10;99.90
22426;DHT22;11380;50.822;15.790;2023-09-19T02:16:48;16.40;99.90
22426;DHT22;11380;50.822;15.790;2023-09-19T02:21:56;16.50;99.90
22426;DHT22;11380;50.822;15.790;2023-09-19T02:27:03;16.80;99.90
22426;DHT22;11380;50.822;15.790;2023-09-19T02:32:11;16.80;99.90
22426;DHT22;11380;50.822;15.790;2023-09-19T02:37:18;16.90;99.90
22426;DHT22;11380;50.822;15.790;2023-09-19T02:42:25;16.70;99.90
22426;DHT22;11380;50.822;15.790;2023-09-19T02:47:32;17.00;99.90
22426;DHT22;11380;50.822;15.790;2023-09-19T02:52:45;16.90;99.90
22426;DHT22;11380;50.822;15.790;2023-09-19T02:57:56;16.90;99.90
22426;DHT22;11380;50.822;15.790;2023-09-19T03:03:03;16.70;99.90
22426;DHT22;11380;50.822;15.790;2023-09-19T03:08:13;16.60;99.90
22426;DHT22;11380;50.822;15.790;2023-09-19T03:13:25;16.70;99.90
22426;DHT22;11380;50.822;15.790;2023-09-19T03:18:37;16.70;99.90
22426;DHT22;11380;50.822;15.790;2023-09-19T03:23:41;16.50;99.90
22426;DHT22;11380;50.822;15.790;2023-09-19T03:28:49;16.30;99.90
22426;DHT22;11380;50.822;15.790;2023-09-19T03:33:57;16.30;99.90
22426;DHT22;11380;50.822;15.790;2023-09-19T03:39:04;16.10;99.90
22426;DHT22;11380;50.822;15.790;2023-09-19T03:44:11;16.00;99.90
22426;DHT22;11380;50.822;15.790;2023-09-19T03:49:17;16.10;99.90
22426;DHT22;11380;50.822;15.790;2023-09-19T03:54:25;16.20;99.90
22426;DHT22;11380;50.822;15.790;2023-09-19T03:59:32;16.10;99.90
22426;DHT22;11380;50.822;15.790;2023-09-19T04:04:40;16.00;99.90
22426;DHT22;11380;50.822;15.790;2023-09-19T04:09:47;16.10;99.90
22426;DHT22;11380;50.822;15.790;2023-09-19T04:14:53;16.20;99.90
22426;DHT22;11380;50.822;15.790;2023-09-19T04:20:00;15.60;99.90
22426;DHT22;11380;50.822;15.790;2023-09-19T04:25:08;15.50;99.90
22426;DHT22;11380;50.822;15.790;2023-09-19T04:30:15;15.80;99.90
22426;DHT22;11380;50.822;15.790;2023-09-19T04:35:21;15.80;99.90
22426;DHT22;11380;50.822;15.790;2023-09-19T04:40:27;16.00;99.90
22426;DHT22;11380;50.822;15.790;2023-09-19T04:45:35;15.70;99.90
22426;DHT22;11380;50.822;15.790;2023-09-19T04:50:42;15.70;99.90
22426;DHT22;11380;50.822;15.790;2023-09-19T04:55:52;15.70;99.90
22426;DHT22;11380;50.822;15.790;2023-09-19T05:01:01;15.80;99.90
22426;DHT22;11380;50.822;15.790;2023-09-19T05:06:09;15.90;99.90
22426;DHT22;11380;50.822;15.790;2023-09-19T05:11:17;16.00;99.90
22426;DHT22;11380;50.822;15.790;2023-09-19T05:16:29;15.80;99.90
22426;DHT22;11380;50.822;15.790;2023-09-19T05:21:41;16.00;99.90
22426;DHT22;11380;50.822;15.790;2023-09-19T05:26:48;16.00;99.90
22426;DHT22;11380;50.822;15.790;2023-09-19T05:31:54;16.10;99.90
22426;DHT22;11380;50.822;15.790;2023-09-19T05:37:02;15.90;99.90
22426;DHT22;11380;50.822;15.790;2023-09-19T05:42:09;15.70;99.90
22426;DHT22;11380;50.822;15.790;2023-09-19T05:47:17;15.90;99.90
22426;DHT22;11380;50.822;15.790;2023-09-19T05:52:25;16.10;99.90
22426;DHT22;11380;50.822;15.790;2023-09-19T05:57:32;16.20;99.90
22426;DHT22;11380;50.822;15.790;2023-09-19T06:02:39;16.00;99.90
22426;DHT22;11380;50.822;15.790;2023-09-19T06:07:47;16.10;99.90
22426;DHT22;11380;50.822;15.790;2023-09-19T06:12:55;16.40;99.90
22426;DHT22;11380;50.822;15.790;2023-09-19T06:18:04;16.60;99.90
22426;DHT22;11380;50.822;15.790;2023-09-19T06:23:11;16.90;99.90
22426;DHT22;11380;50.822;15.790;2023-09-19T06:28:20;16.80;99.90
22426;DHT22;11380;50.822;15.790;2023-09-19T06:33:28;17.00;99.90
22426;DHT22;11380;50.822;15.790;2023-09-19T06:38:36;17.10;99.90
22426;DHT22;11380;50.822;15.790;2023-09-19T06:43:44;17.20;99.90
22426;DHT22;11380;50.822;15.790;2023-09-19T06:48:51;17.20;99.90
22426;DHT22;11380;50.822;15.790;2023-09-19T06:53:58;17.30;99.90
22426;DHT22;11380;50.822;15.790;2023-09-19T06:59:05;17.50;99.90
22426;DHT22;11380;50.822;15.790;2023-09-19T07:04:13;17.60;99.90
22426;DHT22;11380;50.822;15.790;2023-09-19T07:09:21;17.90;99.90
22426;DHT22;11380;50.822;15.790;2023-09-19T07:14:28;18.10;99.90
22426;DHT22;11380;50.822;15.790;2023-09-19T07:19:35;18.20;99.90
22426;DHT22;11380;50.822;15.790;2023-09-19T07:24:42;18.40;99.90
22426;DHT22;11380;50.822;15.790;2023-09-19T07:29:49;18.70;99.90
22426;DHT22;11380;50.822;15.790;2023-09-19T07:34:57;19.30;99.90
22426;DHT22;11380;50.822;15.790;2023-09-19T07:40:06;19.50;99.90
22426;DHT22;11380;50.822;15.790;2023-09-19T07:45:15;20.00;99.90
22426;DHT22;11380;50.822;15.790;2023-09-19T07:50:23;19.70;99.90
22426;DHT22;11380;50.822;15.790;2023-09-19T07:55:31;19.70;99.90
22426;DHT22;11380;50.822;15.790;2023-09-19T08:00:39;19.70;99.90
22426;DHT22;11380;50.822;15.790;2023-09-19T08:05:47;19.70;99.90
22426;DHT22;11380;50.822;15.790;2023-09-19T08:10:56;20.00;99.90
22426;DHT22;11380;50.822;15.790;2023-09-19T08:16:04;20.30;99.90
22426;DHT22;11380;50.822;15.790;2023-09-19T08:21:12;20.00;99.90
22426;DHT22;11380;50.822;15.790;2023-09-19T08:26:21;19.70;99.90
22426;DHT22;11380;50.822;15.790;2023-09-19T08:31:30;19.40;99.90
22426;DHT22;11380;50.822;15.790;2023-09-19T08:36:37;19.10;99.90
22426;DHT22;11380;50.822;15.790;2023-09-19T08:41:46;19.30;99.90
22426;DHT22;11380;50.822;15.790;2023-09-19T08:46:58;19.40;99.90
22426;DHT22;11380;50.822;15.790;2023-09-19T08:52:24;19.80;99.90
22426;DHT22;11380;50.822;15.790;2023-09-19T08:57:34;20.40;99.90
22426;DHT22;11380;50.822;15.790;2023-09-19T09:02:47;20.20;99.90
22426;DHT22;11380;50.822;15.790;2023-09-19T09:07:56;19.90;99.90
22426;DHT22;11380;50.822;15.790;2023-09-19T09:13:04;19.80;99.90
22426;DHT22;11380;50.822;15.790;2023-09-19T09:18:12;19.60;99.90
22426;DHT22;11380;50.822;15.790;2023-09-19T09:23:19;19.70;99.90
22426;DHT22;11380;50.822;15.790;2023-09-19T09:28:27;19.60;99.90
22426;DHT22;11380;50.822;15.790;2023-09-19T09:33:37;19.40;99.90
22426;DHT22;11380;50.822;15.790;2023-09-19T09:38:47;19.30;99.90
22426;DHT22;11380;50.822;15.790;2023-09-19T09:43:54;19.30;99.90
22426;DHT22;11380;50.822;15.790;2023-09-19T09:49:04;19.10;99.90
22426;DHT22;11380;50.822;15.790;2023-09-19T09:54:29;19.20;99.90
22426;DHT22;11380;50.822;15.790;2023-09-19T10:00:00;19.20;99.90
22426;DHT22;11380;50.822;15.790;2023-09-19T10:05:23;19.80;99.90
22426;DHT22;11380;50.822;15.790;2023-09-19T10:10:38;19.60;99.90
22426;DHT22;11380;50.822;15.790;2023-09-19T10:15:50;20.50;99.90
22426;DHT22;11380;50.822;15.790;2023-09-19T10:20:59;20.60;99.90
22426;DHT22;11380;50.822;15.790;2023-09-19T10:26:10;20.40;99.90
22426;DHT22;11380;50.822;15.790;2023-09-19T10:31:20;20.40;99.90
22426;DHT22;11380;50.822;15.790;2023-09-19T10:36:32;20.80;99.90
22426;DHT22;11380;50.822;15.790;2023-09-19T10:41:40;21.50;99.90
22426;DHT22;11380;50.822;15.790;2023-09-19T10:46:50;21.90;99.90
22426;DHT22;11380;50.822;15.790;2023-09-19T10:52:00;21.40;99.90
22426;DHT22;11380;50.822;15.790;2023-09-19T10:57:09;21.40;99.90
22426;DHT22;11380;50.822;15.790;2023-09-19T11:02:18;21.70;99.90
22426;DHT22;11380;50.822;15.790;2023-09-19T11:07:26;22.00;99.90
22426;DHT22;11380;50.822;15.790;2023-09-19T11:17:51;21.40;99.90
22426;DHT22;11380;50.822;15.790;2023-09-19T11:23:18;22.50;99.90
22426;DHT22;11380;50.822;15.790;2023-09-19T11:28:30;22.30;99.90
22426;DHT22;11380;50.822;15.790;2023-09-19T11:33:37;22.10;99.90
22426;DHT22;11380;50.822;15.790;2023-09-19T11:49:29;22.20;99.90
22426;DHT22;11380;50.822;15.790;2023-09-19T11:54:40;22.30;99.60
22426;DHT22;11380;50.822;15.790;2023-09-19T12:05:49;22.50;99.30
22426;DHT22;11380;50.822;15.790;2023-09-19T12:10:57;22.80;99.90
22426;DHT22;11380;50.822;15.790;2023-09-19T12:16:11;22.40;99.80
22426;DHT22;11380;50.822;15.790;2023-09-19T12:21:31;22.20;99.40
22426;DHT22;11380;50.822;15.790;2023-09-19T12:26:43;22.30;99.90
22426;DHT22;11380;50.822;15.790;2023-09-19T12:31:57;21.50;99.90
22426;DHT22;11380;50.822;15.790;2023-09-19T12:38:03;21.10;99.90
22426;DHT22;11380;50.822;15.790;2023-09-19T12:43:11;21.00;99.90
22426;DHT22;11380;50.822;15.790;2023-09-19T12:48:25;21.80;99.90
22426;DHT22;11380;50.822;15.790;2023-09-19T12:53:44;22.30;99.90
22426;DHT22;11380;50.822;15.790;2023-09-19T12:58:57;22.40;98.90
22426;DHT22;11380;50.822;15.790;2023-09-19T13:04:20;22.60;99.90
22426;DHT22;11380;50.822;15.790;2023-09-19T13:09:27;22.70;99.90
22426;DHT22;11380;50.822;15.790;2023-09-19T13:14:37;22.80;99.00
22426;DHT22;11380;50.822;15.790;2023-09-19T13:19:52;22.60;97.90
22426;DHT22;11380;50.822;15.790;2023-09-19T13:24:57;22.60;98.80
22426;DHT22;11380;50.822;15.790;2023-09-19T13:30:06;22.90;99.20
22426;DHT22;11380;50.822;15.790;2023-09-19T13:35:14;22.80;99.70
22426;DHT22;11380;50.822;15.790;2023-09-19T13:40:22;23.10;99.90
22426;DHT22;11380;50.822;15.790;2023-09-19T13:45:30;23.50;99.90
22426;DHT22;11380;50.822;15.790;2023-09-19T13:50:38;22.80;99.90
22426;DHT22;11380;50.822;15.790;2023-09-19T13:55:46;22.10;99.90
22426;DHT22;11380;50.822;15.790;2023-09-19T14:00:55;21.90;99.90
22426;DHT22;11380;50.822;15.790;2023-09-19T14:06:04;22.10;99.90
22426;DHT22;11380;50.822;15.790;2023-09-19T14:11:12;21.90;99.90
22426;DHT22;11380;50.822;15.790;2023-09-19T14:16:20;21.50;99.90
22426;DHT22;11380;50.822;15.790;2023-09-19T14:21:30;21.40;99.90
22426;DHT22;11380;50.822;15.790;2023-09-19T14:26:37;21.80;99.90
22426;DHT22;11380;50.822;15.790;2023-09-19T14:31:45;21.90;99.90
22426;DHT22;11380;50.822;15.790;2023-09-19T14:36:52;22.00;99.90
22426;DHT22;11380;50.822;15.790;2023-09-19T14:42:00;21.80;99.90
22426;DHT22;11380;50.822;15.790;2023-09-19T14:47:08;21.40;99.90
22426;DHT22;11380;50.822;15.790;2023-09-19T14:52:16;21.30;99.90
22426;DHT22;11380;50.822;15.790;2023-09-19T14:57:24;21.20;99.90
22426;DHT22;11380;50.822;15.790;2023-09-19T15:02:31;21.10;99.90
22426;DHT22;11380;50.822;15.790;2023-09-19T15:07:39;21.30;99.90
22426;DHT22;11380;50.822;15.790;2023-09-19T15:12:46;21.20;99.90
22426;DHT22;11380;50.822;15.790;2023-09-19T15:17:53;21.10;99.90
22426;DHT22;11380;50.822;15.790;2023-09-19T15:23:00;21.30;99.90
22426;DHT22;11380;50.822;15.790;2023-09-19T15:28:07;21.20;99.90
22426;DHT22;11380;50.822;15.790;2023-09-19T15:33:16;21.10;99.90
22426;DHT22;11380;50.822;15.790;2023-09-19T15:38:23;21.00;99.90
22426;DHT22;11380;50.822;15.790;2023-09-19T15:43:31;20.90;99.90
22426;DHT22;11380;50.822;15.790;2023-09-19T15:48:39;20.70;99.90
22426;DHT22;11380;50.822;15.790;2023-09-19T15:53:48;20.60;99.90
22426;DHT22;11380;50.822;15.790;2023-09-19T15:58:56;20.10;99.90
22426;DHT22;11380;50.822;15.790;2023-09-19T16:04:04;20.10;99.90
22426;DHT22;11380;50.822;15.790;2023-09-19T16:09:12;20.00;99.90
22426;DHT22;11380;50.822;15.790;2023-09-19T16:14:20;20.00;99.90
22426;DHT22;11380;50.822;15.790;2023-09-19T16:19:26;20.00;99.90
22426;DHT22;11380;50.822;15.790;2023-09-19T16:24:34;19.90;99.90
22426;DHT22;11380;50.822;15.790;2023-09-19T16:29:40;19.70;99.90
22426;DHT22;11380;50.822;15.790;2023-09-19T16:34:49;19.60;99.90
22426;DHT22;11380;50.822;15.790;2023-09-19T16:39:56;19.80;99.90
22426;DHT22;11380;50.822;15.790;2023-09-19T16:45:06;19.50;99.90
22426;DHT22;11380;50.822;15.790;2023-09-19T16:50:16;18.90;99.90
22426;DHT22;11380;50.822;15.790;2023-09-19T16:55:24;18.90;99.90
22426;DHT22;11380;50.822;15.790;2023-09-19T17:00:31;18.70;99.90
22426;DHT22;11380;50.822;15.790;2023-09-19T17:05:37;18.70;99.90
22426;DHT22;11380;50.822;15.790;2023-09-19T17:10:45;18.40;99.90
22426;DHT22;11380;50.822;15.790;2023-09-19T17:16:00;18.40;99.90
22426;DHT22;11380;50.822;15.790;2023-09-19T17:21:08;18.50;99.90
22426;DHT22;11380;50.822;15.790;2023-09-19T17:26:18;18.10;99.90
22426;DHT22;11380;50.822;15.790;2023-09-19T17:31:31;17.60;99.90
22426;DHT22;11380;50.822;15.790;2023-09-19T17:36:39;17.60;99.90
22426;DHT22;11380;50.822;15.790;2023-09-19T17:41:48;16.90;99.90
22426;DHT22;11380;50.822;15.790;2023-09-19T17:46:55;16.70;99.90
22426;DHT22;11380;50.822;15.790;2023-09-19T17:52:02;16.40;99.90
22426;DHT22;11380;50.822;15.790;2023-09-19T17:57:10;16.60;99.90
22426;DHT22;11380;50.822;15.790;2023-09-19T18:02:17;16.70;99.90
22426;DHT22;11380;50.822;15.790;2023-09-19T18:07:27;16.50;99.90
22426;DHT22;11380;50.822;15.790;2023-09-19T18:12:36;16.70;99.90
22426;DHT22;11380;50.822;15.790;2023-09-19T18:17:44;16.50;99.90
22426;DHT22;11380;50.822;15.790;2023-09-19T18:22:52;16.20;99.90
22426;DHT22;11380;50.822;15.790;2023-09-19T18:28:01;16.30;99.90
22426;DHT22;11380;50.822;15.790;2023-09-19T18:33:11;15.90;99.90
22426;DHT22;11380;50.822;15.790;2023-09-19T18:38:20;15.90;99.90
22426;DHT22;11380;50.822;15.790;2023-09-19T18:43:28;15.60;99.90
22426;DHT22;11380;50.822;15.790;2023-09-19T18:48:37;15.20;99.90
22426;DHT22;11380;50.822;15.790;2023-09-19T18:53:54;14.90;99.90
22426;DHT22;11380;50.822;15.790;2023-09-19T18:59:03;15.00;99.90
22426;DHT22;11380;50.822;15.790;2023-09-19T19:04:12;15.20;99.90
22426;DHT22;11380;50.822;15.790;2023-09-19T19:09:20;14.90;99.90
22426;DHT22;11380;50.822;15.790;2023-09-19T19:14:28;14.30;99.90
22426;DHT22;11380;50.822;15.790;2023-09-19T19:19:36;14.40;99.90
22426;DHT22;11380;50.822;15.790;2023-09-19T19:24:49;14.40;99.90
22426;DHT22;11380;50.822;15.790;2023-09-19T19:29:57;14.00;99.90
22426;DHT22;11380;50.822;15.790;2023-09-19T19:35:07;13.60;99.90
22426;DHT22;11380;50.822;15.790;2023-09-19T19:40:15;13.30;99.90
22426;DHT22;11380;50.822;15.790;2023-09-19T19:45:22;13.90;99.90
22426;DHT22;11380;50.822;15.790;2023-09-19T19:50:37;13.80;99.90
22426;DHT22;11380;50.822;15.790;2023-09-19T19:55:43;13.50;99.90
22426;DHT22;11380;50.822;15.790;2023-09-19T20:00:55;13.00;99.90
22426;DHT22;11380;50.822;15.790;2023-09-19T20:06:02;12.90;99.90
22426;DHT22;11380;50.822;15.790;2023-09-19T20:11:11;13.40;99.90
22426;DHT22;11380;50.822;15.790;2023-09-19T20:16:18;13.30;99.90
22426;DHT22;11380;50.822;15.790;2023-09-19T20:21:26;13.30;99.90
22426;DHT22;11380;50.822;15.790;2023-09-19T20:26:41;13.10;99.90
22426;DHT22;11380;50.822;15.790;2023-09-19T20:31:43;13.00;99.90
22426;DHT22;11380;50.822;15.790;2023-09-19T20:36:50;13.00;99.90
22426;DHT22;11380;50.822;15.790;2023-09-19T20:41:57;12.60;99.90
22426;DHT22;11380;50.822;15.790;2023-09-19T20:47:04;12.10;99.90
22426;DHT22;11380;50.822;15.790;2023-09-19T20:52:12;12.30;99.90
22426;DHT22;11380;50.822;15.790;2023-09-19T20:57:20;12.00;99.90
22426;DHT22;11380;50.822;15.790;2023-09-19T21:02:27;12.30;99.90
22426;DHT22;11380;50.822;15.790;2023-09-19T21:07:35;12.30;99.90
22426;DHT22;11380;50.822;15.790;2023-09-19T21:12:43;12.00;99.90
22426;DHT22;11380;50.822;15.790;2023-09-19T21:17:51;12.10;99.90
22426;DHT22;11380;50.822;15.790;2023-09-19T21:23:00;12.20;99.90
22426;DHT22;11380;50.822;15.790;2023-09-19T21:28:10;12.00;99.90
22426;DHT22;11380;50.822;15.790;2023-09-19T21:33:17;12.20;99.90
22426;DHT22;11380;50.822;15.790;2023-09-19T21:38:28;12.10;99.90
22426;DHT22;11380;50.822;15.790;2023-09-19T21:43:37;12.20;99.90
22426;DHT22;11380;50.822;15.790;2023-09-19T21:48:44;12.30;99.90
22426;DHT22;11380;50.822;15.790;2023-09-19T21:53:56;12.00;99.90
22426;DHT22;11380;50.822;15.790;2023-09-19T21:59:05;11.00;99.90
22426;DHT22;11380;50.822;15.790;2023-09-19T22:04:13;11.00;1.00
22426;DHT22;11380;50.822;15.790;2023-09-19T22:09:21;11.20;1.00
22426;DHT22;11380;50.822;15.790;2023-09-19T22:14:27;11.00;1.00
22426;DHT22;11380;50.822;15.790;2023-09-19T22:19:34;11.00;1.00
22426;DHT22;11380;50.822;15.790;2023-09-19T22:24:43;11.20;1.00
22426;DHT22;11380;50.822;15.790;2023-09-19T22:29:50;11.10;1.00
22426;DHT22;11380;50.822;15.790;2023-09-19T22:34:59;10.90;1.00
22426;DHT22;11380;50.822;15.790;2023-09-19T22:40:08;10.90;1.00
22426;DHT22;11380;50.822;15.790;2023-09-19T22:45:17;11.20;1.00
22426;DHT22;11380;50.822;15.790;2023-09-19T22:50:26;11.10;1.00
22426;DHT22;11380;50.822;15.790;2023-09-19T22:55:37;11.00;1.00
22426;DHT22;11380;50.822;15.790;2023-09-19T23:00:46;11.00;1.00
22426;DHT22;11380;50.822;15.790;2023-09-19T23:05:55;11.20;1.00
22426;DHT22;11380;50.822;15.790;2023-09-19T23:11:03;11.50;1.00
22426;DHT22;11380;50.822;15.790;2023-09-19T23:16:12;11.70;1.00
22426;DHT22;11380;50.822;15.790;2023-09-19T23:21:20;11.50;1.00
22426;DHT22;11380;50.822;15.790;2023-09-19T23:26:28;10.80;1.00
22426;DHT22;11380;50.822;15.790;2023-09-19T23:31:35;10.90;1.00
22426;DHT22;11380;50.822;15.790;2023-09-19T23:36:42;11.00;1.00
22426;DHT22;11380;50.822;15.790;2023-09-19T23:41:49;11.20;1.00
22426;DHT22;11380;50.822;15.790;2023-09-19T23:46:58;11.30;1.00
22426;DHT22;11380;50.822;15.790;2023-09-19T23:52:05;11.20;1.00
22426;DHT22;11380;50.822;15.790;2023-09-19T23:57:14;11.10;1.00
